createdAt,value
2018-09-25T00:06:23.002Z,19.1
2018-09-25T00:16:22.230Z,19.2
2018-09-25T00:26:21.461Z,19.1
2018-09-25T00:36:20.686Z,19.2
2018-09-25T00:46:19.922Z,19.1
2018-09-25T00:56:19.151Z,19
2018-09-25T01:06:18.379Z,18.9
2018-09-25T01:16:17.603Z,18.8
2018-09-25T01:26:16.833Z,18.8
2018-09-25T01:36:16.070Z,18.9
2018-09-25T01:46:15.291Z,18.9
2018-09-25T01:56:14.527Z,18.8
2018-09-25T02:06:13.748Z,18.8
2018-09-25T02:16:12.977Z,18.6
2018-09-25T02:26:12.208Z,18.5
2018-09-25T02:36:11.441Z,18.6
2018-09-25T02:46:10.669Z,18.6
2018-09-25T02:56:09.898Z,18.6
2018-09-25T03:06:09.121Z,18.8
2018-09-25T03:16:08.351Z,18.8
2018-09-25T03:26:07.583Z,19
2018-09-25T03:36:06.820Z,19
2018-09-25T03:46:06.035Z,18.9
2018-09-25T03:56:05.269Z,18.8
2018-09-25T04:06:04.555Z,18.8
2018-09-25T04:16:03.719Z,18.8
2018-09-25T04:26:02.954Z,18.8
2018-09-25T04:36:02.188Z,18.4
2018-09-25T04:46:01.415Z,18.4
2018-09-25T04:56:00.628Z,18.2
2018-09-25T05:05:59.868Z,18.2
2018-09-25T05:15:59.088Z,18.3
2018-09-25T05:25:58.316Z,18.4
2018-09-25T05:35:57.548Z,18.6
2018-09-25T05:45:56.775Z,18.9
2018-09-25T05:55:56.001Z,19.3
2018-09-25T06:05:55.225Z,19.7
2018-09-25T06:15:54.459Z,20.1
2018-09-25T06:25:53.687Z,20.6
2018-09-25T06:35:52.914Z,20.7
2018-09-25T06:45:52.137Z,20.8
2018-09-25T06:55:51.365Z,21
2018-09-25T07:05:50.607Z,21.2
2018-09-25T07:15:49.831Z,21.3
2018-09-25T07:25:49.052Z,21.4
2018-09-25T07:35:48.285Z,21.5
2018-09-25T07:45:47.511Z,21.6
2018-09-25T07:55:46.744Z,21.7
2018-09-25T08:05:45.963Z,21.8
2018-09-25T08:15:45.246Z,21.9
2018-09-25T08:25:44.437Z,22.1
2018-09-25T08:35:43.652Z,22.1
2018-09-25T08:45:42.897Z,22.3
2018-09-25T08:55:42.108Z,22.3
2018-09-25T09:05:41.340Z,22.4
2018-09-25T09:15:40.560Z,22.6
2018-09-25T09:25:39.793Z,22.6
2018-09-25T09:35:39.021Z,22.6
2018-09-25T09:45:38.252Z,22.8
2018-09-25T09:55:37.472Z,22.6
2018-09-25T10:05:36.704Z,22.4
2018-09-25T10:15:35.933Z,22.4
2018-09-25T10:25:35.160Z,22.6
2018-09-25T10:35:34.387Z,22.7
2018-09-25T10:45:33.626Z,22.8
2018-09-25T10:55:32.934Z,22.9
2018-09-25T11:05:32.075Z,22.9
2018-09-25T11:15:31.300Z,22.9
2018-09-25T11:25:30.579Z,22.9
2018-09-25T11:35:29.754Z,22.9
2018-09-25T11:45:29.038Z,22.9
2018-09-25T11:55:28.213Z,23
2018-09-25T12:05:27.444Z,23
2018-09-25T12:15:26.672Z,22.9
2018-09-25T12:25:25.900Z,22.8
2018-09-25T12:35:25.137Z,22.9
2018-09-25T12:45:24.354Z,23
2018-09-25T12:55:23.606Z,23
2018-09-25T13:05:22.813Z,23
2018-09-25T13:15:22.035Z,22.9
2018-09-25T13:25:21.267Z,22.8
2018-09-25T13:35:20.491Z,22.8
2018-09-25T13:45:19.725Z,22.9
2018-09-25T13:55:18.998Z,22.9
2018-09-25T14:05:18.176Z,22.8
2018-09-25T14:15:17.404Z,22.8
2018-09-25T14:25:16.632Z,22.7
2018-09-25T14:35:15.858Z,22.5
2018-09-25T14:45:15.085Z,22.4
2018-09-25T14:55:14.316Z,22.3
2018-09-25T15:05:13.543Z,22.1
2018-09-25T15:15:12.775Z,22.1
2018-09-25T15:25:11.996Z,22
2018-09-25T15:35:11.315Z,21.9
2018-09-25T15:45:10.452Z,21.9
2018-09-25T15:55:09.680Z,21.6
2018-09-25T16:05:08.906Z,21.5
2018-09-25T16:15:08.139Z,21.3
2018-09-25T16:25:07.408Z,20.9
2018-09-25T16:35:06.599Z,20.8
2018-09-25T16:45:05.824Z,20.6
2018-09-25T16:55:05.055Z,20.4
2018-09-25T17:05:04.287Z,20.6
2018-09-25T17:15:03.513Z,20.8
2018-09-25T17:25:02.743Z,21.1
2018-09-25T17:35:01.972Z,21.3
2018-09-25T17:45:01.201Z,21.3
2018-09-25T17:55:00.428Z,21.3
2018-09-25T18:04:59.657Z,21.4
2018-09-25T18:14:58.882Z,21.4
2018-09-25T18:24:58.115Z,21.4
2018-09-25T18:34:57.343Z,21.4
2018-09-25T18:44:56.566Z,21.4
2018-09-25T18:54:55.797Z,21.4
2018-09-25T19:04:55.077Z,21.5
2018-09-25T19:14:54.303Z,21.4
2018-09-25T19:24:53.480Z,21.3
2018-09-25T19:34:52.755Z,21.2
2018-09-25T19:44:51.978Z,20.7
2018-09-25T19:54:51.159Z,20.5
2018-09-25T20:04:50.384Z,20.3
2018-09-25T20:14:49.621Z,19.8
2018-09-25T20:24:48.840Z,19.4
2018-09-25T20:34:48.069Z,19.1
2018-09-25T20:44:47.292Z,18.8
2018-09-25T20:54:46.514Z,18.6
2018-09-25T21:04:45.744Z,18.4
2018-09-25T21:14:44.970Z,18.3
2018-09-25T21:24:44.200Z,18.2
2018-09-25T21:34:43.424Z,18.1
2018-09-25T21:44:42.645Z,18
2018-09-25T21:54:42.069Z,17.9
2018-09-25T22:04:41.098Z,17.7
2018-09-25T22:14:40.317Z,17.5
2018-09-25T22:24:39.557Z,17.2
2018-09-25T22:34:38.773Z,16.9
2018-09-25T22:44:37.998Z,16.8
2018-09-25T22:54:37.224Z,16.6
2018-09-25T23:04:36.444Z,16.3
2018-09-25T23:14:35.673Z,16.1
2018-09-25T23:24:34.897Z,16.1
2018-09-25T23:34:34.118Z,16.2
2018-09-25T23:44:33.350Z,16.3
2018-09-25T23:54:32.570Z,16.3
